Time;durP1;ratioP1;P1;durP2;ratioP2;P2;SDS_P1;SDS_P2;PMS_P1;PMS_P2;Temp;Humidity;BMP_temperature;BMP_pressure;BME280_temperature;BME280_humidity;BME280_pressure;Samples;Min_cycle;Max_cycle;Signal;HPM_P1;HPM_P2
2022/10/18 00:02:09;;;;;;;20.48;5.07;;;;;;;12.56;100.00;98225.91;5028492;28;20120;-63
2022/10/18 00:04:36;;;;;;;12.20;4.63;;;;;;;12.63;100.00;98230.41;5029901;28;20824;-63
2022/10/18 00:07:03;;;;;;;9.20;5.03;;;;;;;12.65;100.00;98225.53;5023186;28;20148;-63
2022/10/18 00:09:29;;;;;;;12.32;4.20;;;;;;;12.70;100.00;98220.16;5022545;28;20421;-63
2022/10/18 00:11:56;;;;;;;7.38;4.57;;;;;;;12.70;100.00;98228.31;5023513;28;20045;-63
2022/10/18 00:14:23;;;;;;;8.20;4.63;;;;;;;12.75;100.00;98228.41;5020666;28;20052;-62
2022/10/18 00:16:49;;;;;;;17.45;5.10;;;;;;;12.88;100.00;98222.69;5014072;28;20079;-63
2022/10/18 00:19:15;;;;;;;11.23;4.75;;;;;;;12.93;100.00;98226.56;5020089;28;20034;-62
2022/10/18 00:21:42;;;;;;;9.32;4.55;;;;;;;12.97;100.00;98220.38;5019105;28;20112;-62
2022/10/18 00:24:13;;;;;;;8.32;3.90;;;;;;;13.00;100.00;98230.75;5028263;28;20084;-63
2022/10/18 00:26:40;;;;;;;12.68;5.13;;;;;;;12.93;100.00;98223.84;5026349;28;20049;-64
2022/10/18 00:29:06;;;;;;;8.77;4.30;;;;;;;12.87;100.00;98222.91;5019867;28;20452;-63
2022/10/18 00:31:36;;;;;;;8.48;3.80;;;;;;;12.98;100.00;98222.00;5020285;28;20049;-63
2022/10/18 00:34:06;;;;;;;8.25;4.20;;;;;;;13.03;100.00;98218.56;5028921;28;20120;-63
2022/10/18 00:36:33;;;;;;;7.05;3.88;;;;;;;13.05;100.00;98226.47;5028547;28;20041;-63
2022/10/18 00:39:01;;;;;;;5.70;3.92;;;;;;;13.04;100.00;98220.19;5028962;28;20098;-62
2022/10/18 00:41:30;;;;;;;9.23;5.47;;;;;;;13.03;100.00;98232.16;5027024;28;20125;-63
2022/10/18 00:44:25;;;;;;;7.38;4.68;;;;;;;13.06;100.00;98222.66;5028549;28;20701;-63
2022/10/18 00:46:57;;;;;;;11.43;5.43;;;;;;;13.03;100.00;98221.28;5027883;28;20079;-62
2022/10/18 00:49:30;;;;;;;10.45;3.63;;;;;;;13.05;100.00;98229.19;5028295;28;20116;-62
2022/10/18 00:52:01;;;;;;;7.05;4.35;;;;;;;13.08;100.00;98231.41;5027475;28;20046;-62
2022/10/18 00:54:29;;;;;;;10.95;4.85;;;;;;;13.07;100.00;98230.59;5028660;28;20045;-63
2022/10/18 00:56:57;;;;;;;8.15;4.45;;;;;;;13.12;100.00;98227.94;5028737;28;20121;-63
2022/10/18 00:59:24;;;;;;;10.10;4.03;;;;;;;13.23;100.00;98219.97;5027635;28;20046;-63
2022/10/18 01:01:51;;;;;;;9.05;4.50;;;;;;;13.39;100.00;98219.09;5028161;28;20065;-63
2022/10/18 01:04:19;;;;;;;9.38;4.07;;;;;;;13.55;100.00;98221.25;5028262;28;20041;-63
2022/10/18 01:06:56;;;;;;;7.45;4.13;;;;;;;13.69;100.00;98221.72;5016266;28;20509;-63
2022/10/18 01:09:37;;;;;;;14.05;4.22;;;;;;;13.89;100.00;98222.00;5022001;28;20127;-63
2022/10/18 01:12:26;;;;;;;7.38;4.00;;;;;;;14.04;100.00;98225.97;5014851;28;20053;-63
2022/10/18 01:15:03;;;;;;;7.78;3.45;;;;;;;14.10;100.00;98218.69;5027958;28;20532;-62
2022/10/18 01:17:49;;;;;;;9.32;3.97;;;;;;;14.13;100.00;98226.34;5027416;28;20099;-63
2022/10/18 01:20:57;;;;;;;7.75;3.63;;;;;;;14.16;100.00;98223.94;5027590;28;20124;-63
2022/10/18 01:23:26;;;;;;;8.00;3.72;;;;;;;14.12;100.00;98220.06;5018274;28;20137;-62
2022/10/18 01:26:11;;;;;;;7.70;4.03;;;;;;;14.11;100.00;98231.25;5027699;28;20571;-62
2022/10/18 01:28:53;;;;;;;6.82;3.30;;;;;;;14.09;100.00;98228.78;5026807;28;20116;-62
2022/10/18 01:31:24;;;;;;;7.00;3.60;;;;;;;14.11;100.00;98226.59;5027243;28;20041;-63
2022/10/18 01:33:57;;;;;;;8.77;3.80;;;;;;;14.00;100.00;98224.81;5027461;28;20116;-64
2022/10/18 01:36:26;;;;;;;8.80;4.15;;;;;;;13.94;100.00;98228.56;5028159;28;20420;-63
2022/10/18 01:38:56;;;;;;;7.30;3.65;;;;;;;13.94;100.00;98231.28;5026834;28;20034;-63
2022/10/18 01:41:25;;;;;;;10.38;3.92;;;;;;;13.85;100.00;98223.56;5027352;28;20045;-64
2022/10/18 01:43:56;;;;;;;11.80;3.90;;;;;;;13.84;100.00;98226.53;5027497;28;20048;-63
2022/10/18 01:46:24;;;;;;;8.15;3.65;;;;;;;13.83;100.00;98228.44;5027377;28;20069;-63
2022/10/18 01:48:52;;;;;;;6.82;3.50;;;;;;;13.84;100.00;98221.94;5026968;28;20404;-63
2022/10/18 01:51:25;;;;;;;8.55;4.32;;;;;;;13.89;100.00;98224.72;5026738;28;20069;-63
2022/10/18 01:53:51;;;;;;;7.10;3.53;;;;;;;13.88;100.00;98216.78;5026895;28;20063;-63
2022/10/18 01:56:22;;;;;;;8.95;3.70;;;;;;;13.84;100.00;98219.22;5021217;28;20048;-63
2022/10/18 01:58:57;;;;;;;8.80;3.60;;;;;;;13.91;100.00;98216.28;5018528;28;20118;-63
2022/10/18 02:01:39;;;;;;;7.20;3.67;;;;;;;13.86;100.00;98219.75;5025505;28;20049;-63
2022/10/18 02:04:21;;;;;;;7.10;3.30;;;;;;;13.80;100.00;98215.34;5020584;28;20045;-62
2022/10/18 02:06:56;;;;;;;7.00;3.83;;;;;;;13.74;100.00;98211.72;5027190;28;20124;-63
2022/10/18 02:10:06;;;;;;;7.95;3.88;;;;;;;13.76;100.00;98208.75;5026459;28;20128;-63
2022/10/18 02:12:35;;;;;;;11.68;4.78;;;;;;;13.75;100.00;98207.91;5020076;28;20831;-63
2022/10/18 02:15:06;;;;;;;8.95;3.40;;;;;;;13.80;100.00;98201.72;5025264;28;20041;-63
2022/10/18 02:17:32;;;;;;;13.98;5.10;;;;;;;13.76;100.00;98206.03;5025720;28;20792;-63
2022/10/18 02:20:01;;;;;;;13.52;4.15;;;;;;;13.68;100.00;98199.13;5026189;28;20047;-63
2022/10/18 02:22:31;;;;;;;6.93;3.25;;;;;;;13.70;100.00;98201.56;5026705;28;20068;-63
2022/10/18 02:25:03;;;;;;;7.40;4.22;;;;;;;13.73;100.00;98199.19;5025547;28;20551;-62
2022/10/18 02:27:29;;;;;;;5.45;3.40;;;;;;;13.76;100.00;98192.41;5026763;28;20049;-63
2022/10/18 02:29:57;;;;;;;9.40;3.85;;;;;;;13.69;100.00;98189.88;5026567;28;20069;-63
2022/10/18 02:32:33;;;;;;;8.77;3.53;;;;;;;13.74;100.00;98189.13;5026036;28;20049;-63
2022/10/18 02:35:05;;;;;;;5.88;3.55;;;;;;;13.81;100.00;98187.03;5026766;28;20120;-63
2022/10/18 02:37:34;;;;;;;;;;;;;;;13.96;100.00;98180.16;5026609;28;20037;-63
2022/10/18 02:40:02;;;;;;;8.82;3.20;;;;;;;14.20;97.94;98188.03;5026495;28;19925;-64
2022/10/18 02:42:39;;;;;;;6.75;3.30;;;;;;;14.30;97.03;98183.50;5025441;28;20681;-63
2022/10/18 02:45:05;;;;;;;7.13;3.15;;;;;;;14.29;97.43;98183.75;5026710;28;20128;-62
2022/10/18 02:47:32;;;;;;;7.13;3.03;;;;;;;14.41;95.76;98192.59;5025018;28;20041;-64
2022/10/18 02:49:59;;;;;;;6.53;2.92;;;;;;;14.35;96.37;98185.47;5026465;28;20057;-63
2022/10/18 02:52:25;;;;;;;7.95;3.10;;;;;;;14.27;96.67;98178.56;5025607;28;20045;-62
2022/10/18 02:54:52;;;;;;;4.93;3.35;;;;;;;14.20;97.35;98182.59;5026467;28;20091;-63
2022/10/18 02:57:18;;;;;;;9.65;3.17;;;;;;;14.19;97.27;98192.63;5026544;28;20117;-62
2022/10/18 02:59:45;;;;;;;7.75;3.00;;;;;;;14.20;97.09;98185.31;5025839;28;20041;-63
2022/10/18 03:02:11;;;;;;;5.93;3.17;;;;;;;14.20;96.52;98186.13;5026120;28;20756;-63
2022/10/18 03:04:38;;;;;;;10.23;3.90;;;;;;;14.13;96.91;98189.06;5025531;28;20045;-62
2022/10/18 03:07:04;;;;;;;5.35;2.92;;;;;;;14.01;98.21;98185.66;5026242;28;20083;-63
2022/10/18 03:09:31;;;;;;;6.03;2.75;;;;;;;14.02;97.76;98184.56;5025052;28;20643;-62
2022/10/18 03:11:57;;;;;;;5.10;3.10;;;;;;;13.91;98.33;98181.72;5025774;28;20063;-63
2022/10/18 03:14:24;;;;;;;10.38;3.20;;;;;;;13.81;99.29;98186.22;5025701;28;20133;-63
2022/10/18 03:16:50;;;;;;;8.95;3.50;;;;;;;13.68;100.00;98184.69;5024925;28;20052;-63
2022/10/18 03:19:16;;;;;;;9.02;3.78;;;;;;;13.54;100.00;98187.78;5025695;28;20068;-63
2022/10/18 03:21:43;;;;;;;7.53;3.20;;;;;;;13.35;100.00;98193.47;5024710;28;20120;-63
2022/10/18 03:24:10;;;;;;;10.75;3.28;;;;;;;13.24;100.00;98192.50;5025977;28;20552;-63
2022/10/18 03:26:36;;;;;;;5.97;3.13;;;;;;;13.17;100.00;98186.44;5025085;28;20543;-63
2022/10/18 03:29:02;;;;;;;7.25;3.08;;;;;;;13.22;100.00;98186.50;5025618;28;20041;-63
2022/10/18 03:31:29;;;;;;;7.93;3.92;;;;;;;13.28;100.00;98187.41;5024810;28;20555;-63
2022/10/18 03:34:00;;;;;;;11.68;4.15;;;;;;;13.27;100.00;98181.13;5025693;28;20133;-63
2022/10/18 03:36:27;;;;;;;10.32;3.33;;;;;;;13.25;100.00;98180.56;5025868;28;20128;-63
2022/10/18 03:38:53;;;;;;;5.57;3.67;;;;;;;13.20;100.00;98176.94;5024778;28;20084;-63
2022/10/18 03:41:20;;;;;;;7.03;3.58;;;;;;;13.13;100.00;98174.41;5020627;28;20041;-62
2022/10/18 03:43:47;;;;;;;12.57;4.32;;;;;;;13.06;100.00;98173.75;5024119;28;20038;-63
2022/10/18 03:46:13;;;;;;;5.15;3.03;;;;;;;13.04;100.00;98168.53;5024922;28;20408;-63
2022/10/18 03:48:40;;;;;;;5.72;3.30;;;;;;;13.03;100.00;98179.66;5025084;28;20055;-63
2022/10/18 03:51:06;;;;;;;8.98;3.58;;;;;;;12.99;100.00;98179.34;5024424;28;20112;-64
2022/10/18 03:53:33;;;;;;;9.95;3.75;;;;;;;12.97;100.00;98192.38;5025708;28;20053;-63
2022/10/18 03:55:59;;;;;;;7.63;3.45;;;;;;;12.99;100.00;98191.06;5024752;28;20045;-63
2022/10/18 03:58:25;;;;;;;7.20;4.13;;;;;;;13.09;100.00;98192.28;5025652;28;20083;-63
2022/10/18 04:00:53;;;;;;;7.05;3.17;;;;;;;13.18;100.00;98196.22;5024193;28;20041;-63
2022/10/18 04:03:21;;;;;;;7.20;3.20;;;;;;;13.34;100.00;98191.03;5025539;28;20416;-62
2022/10/18 04:05:48;;;;;;;8.15;2.85;;;;;;;13.48;99.31;98200.50;5024886;28;20128;-63
2022/10/18 04:08:15;;;;;;;8.00;3.50;;;;;;;13.59;98.39;98198.72;5025368;28;20485;-62
2022/10/18 04:10:42;;;;;;;8.15;3.83;;;;;;;13.64;97.84;98190.63;5024608;28;20042;-62
2022/10/18 04:13:09;;;;;;;8.90;2.95;;;;;;;13.69;97.42;98199.94;5024516;28;20670;-63
2022/10/18 04:15:36;;;;;;;7.13;3.08;;;;;;;13.84;96.10;98199.31;5025698;28;20037;-62
2022/10/18 04:18:03;;;;;;;10.80;3.42;;;;;;;13.93;95.42;98194.25;5024519;28;20606;-63
2022/10/18 04:20:29;;;;;;;7.95;3.20;;;;;;;14.00;95.19;98203.88;5025171;28;20063;-63
2022/10/18 04:22:56;;;;;;;6.45;2.80;;;;;;;13.90;95.70;98198.31;5024154;28;20080;-63
2022/10/18 04:25:23;;;;;;;5.45;2.47;;;;;;;13.91;95.69;98202.69;5026621;28;20120;-62
2022/10/18 04:27:50;;;;;;;5.60;3.08;;;;;;;13.86;95.54;98203.44;5027878;28;20524;-63
2022/10/18 04:30:17;;;;;;;6.97;2.72;;;;;;;13.67;97.05;98205.63;5025841;28;20065;-62
2022/10/18 04:32:43;;;;;;;7.45;3.25;;;;;;;13.22;100.00;98212.84;5016988;28;20117;-63
2022/10/18 04:35:10;;;;;;;7.68;3.20;;;;;;;13.04;100.00;98216.66;5022964;28;20068;-63
2022/10/18 04:37:37;;;;;;;6.70;3.25;;;;;;;12.78;100.00;98218.97;5031427;28;20088;-63
2022/10/18 04:40:04;;;;;;;4.90;3.47;;;;;;;12.68;100.00;98220.41;5033057;28;20045;-62
2022/10/18 04:42:30;;;;;;;7.70;3.25;;;;;;;12.60;100.00;98208.06;5028888;28;20038;-63
2022/10/18 04:44:57;;;;;;;10.48;3.70;;;;;;;12.59;100.00;98219.16;5028293;28;20137;-63
2022/10/18 04:47:23;;;;;;;6.05;3.42;;;;;;;12.74;100.00;98221.34;5024485;28;20102;-63
2022/10/18 04:49:49;;;;;;;7.00;3.22;;;;;;;12.96;100.00;98218.72;5034915;28;20052;-63
2022/10/18 04:52:16;;;;;;;5.78;3.63;;;;;;;12.91;100.00;98215.09;5024583;28;20057;-61
2022/10/18 04:54:42;;;;;;;7.97;3.75;;;;;;;12.67;100.00;98226.91;5023498;28;20052;-63
2022/10/18 04:57:09;;;;;;;6.18;3.28;;;;;;;12.59;100.00;98220.00;5019694;28;20045;-64
2022/10/18 04:59:36;;;;;;;8.63;2.97;;;;;;;12.59;100.00;98225.44;5012375;28;20117;-62
2022/10/18 05:02:03;;;;;;;9.50;3.72;;;;;;;12.69;100.00;98218.53;5014166;28;20606;-63
2022/10/18 05:04:34;;;;;;;6.05;3.35;;;;;;;12.83;100.00;98228.00;5021326;28;20065;-63
2022/10/18 05:07:01;;;;;;;6.55;3.40;;;;;;;12.87;100.00;98214.78;5033154;28;20120;-64
2022/10/18 05:09:28;;;;;;;7.00;3.30;;;;;;;12.91;100.00;98221.38;5034444;28;20047;-62
2022/10/18 05:11:54;;;;;;;6.80;3.53;;;;;;;12.77;100.00;98226.28;5028931;28;20121;-63
2022/10/18 05:14:21;;;;;;;7.28;3.80;;;;;;;12.61;100.00;98226.00;5025798;28;20064;-63
2022/10/18 05:16:47;;;;;;;6.72;3.40;;;;;;;12.36;100.00;98221.75;5026267;28;20048;-63
2022/10/18 05:19:13;;;;;;;7.72;3.88;;;;;;;12.22;100.00;98223.94;5025501;28;20108;-63
2022/10/18 05:21:40;;;;;;;6.20;3.58;;;;;;;12.14;100.00;98224.31;5025419;28;20075;-63
2022/10/18 05:24:08;;;;;;;6.97;3.47;;;;;;;12.09;100.00;98224.22;5025872;28;20049;-63
2022/10/18 05:26:35;;;;;;;8.82;3.65;;;;;;;12.05;100.00;98217.59;5025873;28;20049;-63
2022/10/18 05:29:02;;;;;;;7.78;3.72;;;;;;;12.05;100.00;98223.03;5025825;28;20042;-63
2022/10/18 05:31:29;;;;;;;9.15;3.65;;;;;;;12.09;100.00;98225.03;5019156;28;20046;-63
2022/10/18 05:33:55;;;;;;;6.38;3.78;;;;;;;12.07;100.00;98220.91;5022811;28;20055;-63
2022/10/18 05:36:22;;;;;;;8.18;4.25;;;;;;;12.10;100.00;98210.38;5015696;28;20045;-63
2022/10/18 05:38:49;;;;;;;7.95;3.30;;;;;;;12.17;100.00;98217.59;5024264;28;20649;-63
2022/10/18 05:41:15;;;;;;;10.95;3.80;;;;;;;12.27;100.00;98219.69;5015249;28;20045;-63
2022/10/18 05:43:41;;;;;;;7.18;4.43;;;;;;;12.29;100.00;98220.25;5016730;28;20398;-63
2022/10/18 05:46:08;;;;;;;8.20;3.90;;;;;;;12.17;100.00;98212.16;5013964;28;20152;-63
2022/10/18 05:48:42;;;;;;;7.70;4.07;;;;;;;12.20;100.00;98222.53;5018254;28;20053;-63
2022/10/18 05:51:08;;;;;;;7.55;3.70;;;;;;;12.23;100.00;98216.59;5016290;28;20570;-63
2022/10/18 05:53:35;;;;;;;5.95;3.17;;;;;;;12.17;100.00;98221.09;5014711;28;20091;-63
2022/10/18 05:56:04;;;;;;;7.72;3.80;;;;;;;12.16;100.00;98216.75;5017374;28;20045;-63
2022/10/18 05:58:30;;;;;;;6.60;4.00;;;;;;;12.28;100.00;98221.31;5029800;28;20068;-62
2022/10/18 06:00:59;;;;;;;6.35;3.33;;;;;;;12.54;100.00;98225.34;5026379;28;20132;-63
2022/10/18 06:03:26;;;;;;;8.18;3.60;;;;;;;12.72;100.00;98228.91;5016881;28;20081;-62
2022/10/18 06:05:59;;;;;;;17.58;4.60;;;;;;;12.80;100.00;98224.97;5021505;28;20128;-62
2022/10/18 06:08:25;;;;;;;9.18;3.92;;;;;;;12.90;100.00;98221.59;5015989;28;20056;-63
2022/10/18 06:10:52;;;;;;;8.98;4.80;;;;;;;13.04;100.00;98225.63;5016506;28;20046;-62
2022/10/18 06:13:18;;;;;;;6.45;3.30;;;;;;;13.23;100.00;98217.25;5013123;28;20080;-63
2022/10/18 06:15:45;;;;;;;11.52;3.40;;;;;;;13.35;100.00;98223.38;5018567;28;20045;-63
2022/10/18 06:18:11;;;;;;;10.77;3.70;;;;;;;13.50;100.00;98228.25;5015367;28;20050;-62
2022/10/18 06:20:38;;;;;;;8.20;3.45;;;;;;;13.65;100.00;98232.28;5013316;28;20065;-63
2022/10/18 06:23:04;;;;;;;7.97;3.20;;;;;;;13.74;100.00;98222.59;5021838;28;20099;-63
2022/10/18 06:25:31;;;;;;;5.18;2.90;;;;;;;13.92;98.74;98223.38;5024713;28;20125;-63
2022/10/18 06:27:57;;;;;;;7.93;3.60;;;;;;;14.05;98.28;98228.44;5024983;28;20181;-63
2022/10/18 06:30:24;;;;;;;7.20;3.03;;;;;;;14.05;98.65;98222.19;5024380;28;20048;-62
2022/10/18 06:32:50;;;;;;;8.65;3.10;;;;;;;14.03;99.00;98233.31;5023911;28;20125;-62
2022/10/18 06:35:16;;;;;;;9.75;3.60;;;;;;;14.13;98.01;98226.34;5025300;28;20496;-63
2022/10/18 06:37:43;;;;;;;7.93;3.30;;;;;;;14.18;97.37;98235.41;5026565;28;20492;-63
2022/10/18 06:40:10;;;;;;;7.38;2.80;;;;;;;14.23;97.37;98234.63;5026250;28;20041;-63
2022/10/18 06:42:36;;;;;;;9.45;2.90;;;;;;;14.22;98.19;98234.91;5026634;28;20124;-63
2022/10/18 06:45:04;;;;;;;11.48;3.13;;;;;;;14.17;98.89;98228.31;5025086;28;20044;-63
2022/10/18 06:47:31;;;;;;;8.35;2.83;;;;;;;14.11;99.31;98223.88;5026258;28;20061;-63
2022/10/18 06:49:58;;;;;;;7.25;3.00;;;;;;;14.21;98.57;98225.06;5021988;28;20034;-63
2022/10/18 06:52:25;;;;;;;7.50;2.92;;;;;;;14.36;97.48;98233.44;5020518;28;20542;-63
2022/10/18 06:54:51;;;;;;;9.38;4.35;;;;;;;14.37;97.65;98237.00;5025816;28;20048;-63
2022/10/18 06:57:19;;;;;;;7.60;4.03;;;;;;;14.24;99.93;98238.19;5016152;28;20762;-63
2022/10/18 06:59:46;;;;;;;5.78;3.40;;;;;;;14.10;100.00;98241.31;5018361;28;20045;-63
2022/10/18 07:02:18;;;;;;;5.22;2.83;;;;;;;14.02;100.00;98239.03;5021329;28;20041;-63
2022/10/18 07:04:45;;;;;;;11.50;3.25;;;;;;;13.92;100.00;98245.16;5014096;28;20552;-63
2022/10/18 07:07:12;;;;;;;4.93;3.42;;;;;;;13.96;100.00;98248.22;5018967;28;20041;-64
2022/10/18 07:09:39;;;;;;;6.00;3.53;;;;;;;14.08;100.00;98256.25;5022889;28;20078;-63
2022/10/18 07:12:05;;;;;;;9.88;3.50;;;;;;;14.22;100.00;98262.16;5021462;28;20041;-63
2022/10/18 07:14:32;;;;;;;7.90;3.55;;;;;;;14.34;100.00;98254.63;5023004;28;20037;-63
2022/10/18 07:16:59;;;;;;;8.20;3.50;;;;;;;14.46;99.84;98264.59;5020557;28;20060;-60
2022/10/18 07:19:25;;;;;;;8.80;3.40;;;;;;;14.56;99.39;98262.00;5022445;28;20041;-61
2022/10/18 07:21:52;;;;;;;7.15;3.38;;;;;;;14.67;98.49;98254.75;5022041;28;20069;-62
2022/10/18 07:24:18;;;;;;;7.35;3.30;;;;;;;14.76;97.79;98250.50;5018124;28;20037;-60
2022/10/18 07:26:45;;;;;;;8.52;3.30;;;;;;;14.94;96.91;98249.31;5022670;28;20579;-64
2022/10/18 07:29:12;;;;;;;9.52;3.13;;;;;;;15.12;95.13;98252.72;5022658;28;20572;-61
2022/10/18 07:31:39;;;;;;;7.72;2.83;;;;;;;15.28;94.19;98250.09;5026612;28;20160;-60
2022/10/18 07:34:09;;;;;;;5.68;2.78;;;;;;;15.40;94.07;98244.47;5022129;28;20034;-60
2022/10/18 07:36:35;;;;;;;5.40;3.20;;;;;;;15.47;93.21;98251.34;5024274;28;20045;-60
2022/10/18 07:39:03;;;;;;;7.68;2.75;;;;;;;15.65;91.15;98249.28;5016194;28;20503;-64
2022/10/18 07:41:32;;;;;;;6.05;2.92;;;;;;;15.83;90.03;98258.09;5022674;28;20076;-64
2022/10/18 07:44:00;;;;;;;5.35;2.47;;;;;;;15.94;89.13;98256.25;5023572;28;20276;-64
2022/10/18 07:46:27;;;;;;;5.28;2.95;;;;;;;15.96;89.72;98254.13;5023831;28;20408;-64
2022/10/18 07:48:53;;;;;;;4.82;2.45;;;;;;;15.96;90.18;98262.31;5021347;28;21432;-64
2022/10/18 07:51:20;;;;;;;7.03;2.75;;;;;;;15.96;90.80;98259.56;5019500;28;20124;-60
2022/10/18 07:53:47;;;;;;;9.80;2.70;;;;;;;15.96;91.82;98265.03;5022174;28;20080;-60
2022/10/18 07:56:16;;;;;;;8.57;2.45;;;;;;;15.87;92.80;98270.13;5019708;28;20129;-59
2022/10/18 07:58:51;;;;;;;7.38;2.72;;;;;;;15.84;91.61;98276.13;5018307;28;20041;-61
2022/10/18 08:01:20;;;;;;;8.32;2.92;;;;;;;15.87;91.66;98278.34;5024040;28;20052;-61
2022/10/18 08:03:47;;;;;;;8.98;2.90;;;;;;;15.89;91.49;98270.72;5027257;28;20105;-58
2022/10/18 08:06:15;;;;;;;6.70;3.42;;;;;;;16.07;89.25;98274.09;5026642;28;20116;-59
2022/10/18 08:08:41;;;;;;;5.63;2.53;;;;;;;16.23;87.68;98283.19;5024381;28;20048;-60
2022/10/18 08:11:14;;;;;;;8.18;2.90;;;;;;;16.38;86.32;98275.06;5027602;28;20116;-60
2022/10/18 08:13:42;;;;;;;5.68;2.65;;;;;;;16.48;85.63;98284.38;5019955;28;20049;-60
2022/10/18 08:16:10;;;;;;;8.07;3.05;;;;;;;16.57;85.32;98285.50;5021455;28;20088;-61
2022/10/18 08:18:37;;;;;;;7.22;2.70;;;;;;;16.59;86.07;98286.03;5021045;28;20474;-61
2022/10/18 08:21:07;;;;;;;7.85;3.17;;;;;;;16.64;86.31;98285.22;5025741;28;20840;-59
2022/10/18 08:23:34;;;;;;;8.27;3.65;;;;;;;16.54;87.73;98290.69;5022433;28;20049;-60
2022/10/18 08:26:05;;;;;;;10.30;3.47;;;;;;;16.56;86.67;98280.28;5027182;28;20057;-60
2022/10/18 08:28:35;;;;;;;6.35;2.83;;;;;;;16.58;87.23;98284.41;5026201;28;20545;-60
2022/10/18 08:31:04;;;;;;;6.55;2.90;;;;;;;16.75;85.84;98284.19;5025865;28;20053;-61
2022/10/18 08:33:31;;;;;;;16.80;3.97;;;;;;;16.83;85.44;98285.56;5022371;28;20476;-62
2022/10/18 08:35:59;;;;;;;5.57;2.63;;;;;;;16.78;85.52;98291.81;5027140;28;20103;-61
2022/10/18 08:38:30;;;;;;;6.50;2.72;;;;;;;16.84;85.60;98292.66;5027196;28;20072;-60
2022/10/18 08:41:30;;;;;;;6.20;2.70;;;;;;;16.96;85.38;98292.44;5028002;28;20041;-61
2022/10/18 08:44:31;;;;;;;5.68;2.45;;;;;;;17.03;85.31;98289.44;5025581;28;20056;-63
2022/10/18 08:47:02;;;;;;;5.03;2.53;;;;;;;17.01;85.03;98289.69;5024551;28;20685;-63
2022/10/18 08:49:36;;;;;;;4.80;2.60;;;;;;;17.00;85.49;98307.19;5025500;28;20349;-63
2022/10/18 08:52:08;;;;;;;5.30;2.33;;;;;;;17.04;85.69;98312.94;5024042;28;20049;-63
2022/10/18 08:54:50;;;;;;;4.93;2.65;;;;;;;17.09;85.92;98307.50;5020681;28;20041;-63
2022/10/18 08:57:18;;;;;;;5.95;2.30;;;;;;;17.15;85.68;98313.81;5024355;28;20041;-63
2022/10/18 08:59:45;;;;;;;6.78;2.75;;;;;;;16.93;86.22;98317.56;5024714;28;20145;-63
2022/10/18 09:02:50;;;;;;;11.30;3.38;;;;;;;16.85;86.90;98321.66;5023872;28;20068;-58
2022/10/18 09:05:39;;;;;;;7.85;3.28;;;;;;;16.73;87.25;98318.34;5018863;28;20041;-64
2022/10/18 09:08:27;;;;;;;8.85;2.50;;;;;;;16.51;88.99;98314.72;5026409;28;20740;-63
2022/10/18 09:11:05;;;;;;;6.28;2.95;;;;;;;16.40;89.80;98314.97;5019619;28;20052;-59
2022/10/18 09:14:10;;;;;;;11.73;4.07;;;;;;;16.37;89.82;98314.38;5025969;28;20073;-58
2022/10/18 09:16:53;;;;;;;6.72;3.00;;;;;;;16.43;89.14;98312.50;5025427;28;20056;-58
2022/10/18 09:19:27;;;;;;;7.05;2.97;;;;;;;16.45;88.68;98307.59;5020286;28;20041;-55
2022/10/18 09:21:59;;;;;;;5.45;2.78;;;;;;;16.55;87.96;98309.53;5025094;28;20099;-59
2022/10/18 09:24:44;;;;;;;6.40;2.20;;;;;;;16.70;87.92;98316.97;5025511;28;20056;-59
2022/10/18 09:27:15;;;;;;;6.55;2.80;;;;;;;16.84;87.56;98319.22;5025817;28;20116;-58
2022/10/18 09:30:02;;;;;;;4.47;2.50;;;;;;;16.97;87.30;98310.47;5025336;28;20045;-58
2022/10/18 09:32:52;;;;;;;6.53;2.88;;;;;;;17.18;86.41;98309.69;5024478;28;20099;-57
2022/10/18 09:35:23;;;;;;;5.95;2.60;;;;;;;17.41;86.74;98306.44;5026774;28;20136;-59
2022/10/18 09:37:54;;;;;;;6.50;2.60;;;;;;;17.56;85.82;98307.50;5023939;28;20060;-59
2022/10/18 09:40:25;;;;;;;6.70;2.50;;;;;;;17.73;84.69;98309.16;5027219;28;20042;-59
2022/10/18 09:43:00;;;;;;;;;;;;;;;17.89;84.34;98309.94;5027160;28;20097;-57
2022/10/18 09:45:31;;;;;;;5.95;2.53;;;;;;;18.02;84.12;98309.34;5020933;28;20033;-58
2022/10/18 09:48:17;;;;;;;;;;;;;;;18.10;82.17;98310.75;5022118;28;20049;-59
2022/10/18 09:51:03;;;;;;;5.20;2.40;;;;;;;18.23;80.92;98309.31;5018868;28;19925;-58
2022/10/18 09:53:45;;;;;;;7.35;2.75;;;;;;;18.35;80.53;98319.16;5019172;28;20107;-58
2022/10/18 09:56:31;;;;;;;5.57;2.30;;;;;;;18.49;81.05;98313.88;5020718;28;20053;-59
2022/10/18 09:59:03;;;;;;;4.18;2.22;;;;;;;18.60;80.84;98315.47;5024887;28;20057;-58
2022/10/18 10:01:31;;;;;;;8.07;2.97;;;;;;;18.74;78.08;98321.16;5024830;28;20099;-57
2022/10/18 10:03:57;;;;;;;6.85;2.78;;;;;;;18.89;77.13;98323.00;5024630;28;20072;-59
2022/10/18 10:06:29;;;;;;;7.32;3.25;;;;;;;19.01;76.53;98311.66;5024447;28;20053;-58
2022/10/18 10:09:01;;;;;;;4.43;2.33;;;;;;;19.15;77.28;98317.38;5026187;28;20403;-58
2022/10/18 10:11:57;;;;;;;;;;;;;;;19.12;76.63;98311.66;5026749;28;20124;-55
2022/10/18 10:14:26;;;;;;;7.47;2.58;;;;;;;19.23;77.21;98318.69;5022249;28;20459;-59
2022/10/18 10:17:01;;;;;;;4.70;2.38;;;;;;;19.28;76.89;98324.16;5022025;28;20057;-59
2022/10/18 10:19:33;;;;;;;5.63;2.55;;;;;;;19.32;79.05;98325.19;5025274;28;20041;-59
2022/10/18 10:22:09;;;;;;;6.07;2.83;;;;;;;19.27;78.08;98327.19;5024074;28;20049;-59
2022/10/18 10:24:35;;;;;;;7.40;2.67;;;;;;;19.22;77.66;98330.78;5024707;28;20125;-60
2022/10/18 10:27:05;;;;;;;6.43;2.42;;;;;;;19.03;78.45;98323.19;5024842;28;20065;-60
2022/10/18 10:29:44;;;;;;;4.78;2.50;;;;;;;18.70;79.15;98331.91;5015886;28;20045;-60
2022/10/18 10:32:16;;;;;;;6.53;2.35;;;;;;;18.62;81.11;98323.41;5023614;28;20127;-60
2022/10/18 10:34:43;;;;;;;5.55;2.50;;;;;;;18.72;79.69;98315.97;5021320;28;20171;-59
2022/10/18 10:37:23;;;;;;;6.75;2.80;;;;;;;18.86;79.12;98315.34;5019205;28;20528;-59
2022/10/18 10:40:05;;;;;;;5.03;2.30;;;;;;;19.06;80.16;98311.66;5019014;28;20880;-60
2022/10/18 10:43:15;;;;;;;4.93;2.22;;;;;;;19.28;76.38;98315.94;5017282;28;20057;-60
2022/10/18 10:46:06;;;;;;;4.28;2.42;;;;;;;19.36;76.20;98312.53;5013398;28;20045;-59
2022/10/18 10:48:40;;;;;;;7.90;2.15;;;;;;;19.45;76.48;98309.19;5018922;28;20065;-60
2022/10/18 10:51:09;;;;;;;6.55;2.20;;;;;;;19.54;75.27;98314.88;5021060;28;20130;-60
2022/10/18 10:53:41;;;;;;;5.30;2.15;;;;;;;19.59;74.21;98326.66;5015514;28;20117;-56
2022/10/18 10:56:16;;;;;;;4.45;1.85;;;;;;;19.58;73.97;98315.94;5017308;28;20394;-60
2022/10/18 10:58:43;;;;;;;6.00;2.20;;;;;;;19.58;74.01;98308.53;5023434;28;20140;-59
2022/10/18 11:01:28;;;;;;;3.50;1.85;;;;;;;19.65;72.61;98310.13;5023150;28;20056;-59
2022/10/18 11:04:01;;;;;;;4.38;2.00;;;;;;;19.66;73.77;98311.75;5022918;28;20064;-60
2022/10/18 11:06:40;;;;;;;5.47;2.15;;;;;;;19.70;74.89;98307.31;5022370;28;20042;-60
2022/10/18 11:09:28;;;;;;;4.95;1.98;;;;;;;19.68;73.17;98309.53;5023614;28;20045;-60
2022/10/18 11:12:02;;;;;;;5.30;2.42;;;;;;;19.75;71.15;98308.09;5008155;28;20116;-59
2022/10/18 11:14:35;;;;;;;6.38;2.40;;;;;;;19.86;71.47;98296.97;5022206;28;20057;-61
2022/10/18 11:17:16;;;;;;;4.90;2.28;;;;;;;19.76;71.62;98303.44;5023427;28;20045;-55
2022/10/18 11:19:58;;;;;;;3.80;1.80;;;;;;;19.84;70.82;98296.47;5022421;28;20117;-57
2022/10/18 11:22:26;;;;;;;3.78;1.90;;;;;;;19.87;71.48;98302.19;5022599;28;20144;-56
2022/10/18 11:24:53;;;;;;;5.88;1.60;;;;;;;19.95;71.23;98306.25;5023581;28;20501;-58
2022/10/18 11:27:24;;;;;;;4.72;1.80;;;;;;;19.99;71.42;98304.59;5024034;28;20869;-58
2022/10/18 11:30:14;;;;;;;;;;;;;;;20.08;72.27;98309.44;5023573;28;20046;-57
2022/10/18 11:33:02;;;;;;;5.78;1.92;;;;;;;20.18;72.18;98316.75;5023042;28;19929;-56
2022/10/18 11:35:40;;;;;;;4.03;1.88;;;;;;;20.18;70.83;98311.25;5025054;28;20049;-58
2022/10/18 11:38:10;;;;;;;3.95;1.60;;;;;;;19.97;71.49;98308.72;5027668;28;20570;-58
2022/10/18 11:40:52;;;;;;;4.40;1.75;;;;;;;20.04;71.53;98311.16;5024245;28;20084;-58
2022/10/18 11:43:33;;;;;;;6.35;2.00;;;;;;;20.03;71.40;98313.06;5022254;28;20243;-57
2022/10/18 11:46:26;;;;;;;4.68;2.05;;;;;;;19.91;71.15;98323.59;5026923;28;20048;-56
2022/10/18 11:49:14;;;;;;;3.50;1.90;;;;;;;19.71;72.27;98312.53;5027071;28;20095;-56